Time;durP1;ratioP1;P1;durP2;ratioP2;P2;SDS_P1;SDS_P2;PMS_P1;PMS_P2;Temp;Humidity;BMP_temperature;BMP_pressure;BME280_temperature;BME280_humidity;BME280_pressure;Samples;Min_cycle;Max_cycle;Signal;HPM_P1;HPM_P2
2022/04/10 00:00:55;;;;;;;0.00;0.00;;;;;;;7.04;50.46;101218.16;7358595;19;20034;-65
2022/04/10 00:03:22;;;;;;;0.00;0.00;;;;;;;6.94;50.60;101200.84;7354629;19;20272;-64
2022/04/10 00:05:48;;;;;;;0.00;0.00;;;;;;;7.04;50.38;101231.16;7352989;19;20007;-64
2022/04/10 00:08:14;;;;;;;0.00;0.00;;;;;;;7.00;50.66;101230.31;7361266;19;20031;-65
2022/04/10 00:10:39;;;;;;;0.00;0.00;;;;;;;6.94;50.92;101225.09;7360507;19;20105;-63
2022/04/10 00:13:04;;;;;;;0.00;0.00;;;;;;;6.93;51.13;101225.09;7346966;19;20509;-65
2022/04/10 00:15:30;;;;;;;0.00;0.00;;;;;;;6.47;50.95;101150.66;7358208;19;20082;-64
2022/04/10 00:17:55;;;;;;;0.00;0.00;;;;;;;6.82;51.30;101219.91;7359451;19;20014;-64
2022/04/10 00:20:21;;;;;;;0.10;0.10;;;;;;;6.76;51.40;101217.31;7345194;19;20002;-65
2022/04/10 00:22:48;;;;;;;0.00;0.00;;;;;;;6.72;51.21;101219.00;7351710;19;20035;-65
2022/04/10 00:25:16;;;;;;;0.00;0.00;;;;;;;6.69;51.09;101218.13;7355927;19;20006;-63
2022/04/10 00:27:41;;;;;;;;;;;;;;;6.67;49.09;101215.53;7355815;19;20354;-64
2022/04/10 00:30:08;;;;;;;0.00;0.00;;;;;;;6.59;51.06;101212.09;7355668;19;19915;-65
2022/04/10 00:32:34;;;;;;;0.00;0.00;;;;;;;6.60;51.19;101218.16;7339418;19;20524;-65
2022/04/10 00:34:59;;;;;;;0.00;0.00;;;;;;;6.49;50.99;101206.03;7358070;19;20010;-64
2022/04/10 00:37:25;;;;;;;0.00;0.00;;;;;;;6.47;51.38;101207.72;7339925;19;20011;-64
2022/04/10 00:39:51;;;;;;;0.00;0.00;;;;;;;6.46;50.77;101216.38;7361558;19;20014;-65
2022/04/10 00:42:16;;;;;;;0.00;0.00;;;;;;;6.44;50.90;101210.34;7359537;19;20694;-64
2022/04/10 00:44:42;;;;;;;0.00;0.00;;;;;;;6.41;51.27;101215.50;7358060;19;20048;-65
2022/04/10 00:47:10;;;;;;;0.00;0.00;;;;;;;6.38;51.48;101207.69;7356536;19;20698;-64
2022/04/10 00:49:36;;;;;;;0.00;0.00;;;;;;;6.35;51.35;101212.03;7349679;19;20053;-64
2022/04/10 00:52:02;;;;;;;0.08;0.08;;;;;;;6.32;51.75;101207.69;7355683;19;20035;-65
2022/04/10 00:54:30;;;;;;;0.00;0.00;;;;;;;6.20;51.86;101192.97;7360323;19;20691;-65
2022/04/10 00:56:57;;;;;;;0.00;0.00;;;;;;;6.27;52.21;101209.41;7349178;19;20014;-65
2022/04/10 00:59:24;;;;;;;0.00;0.00;;;;;;;6.25;51.74;101208.53;7356668;19;20031;-65
2022/04/10 01:01:49;;;;;;;0.00;0.00;;;;;;;6.14;51.93;101189.50;7351655;19;20074;-65
2022/04/10 01:04:18;;;;;;;0.00;0.00;;;;;;;6.19;51.70;101205.94;7355393;19;20669;-64
2022/04/10 01:06:47;;;;;;;0.00;0.00;;;;;;;6.17;51.42;101207.63;7357624;19;20470;-65
2022/04/10 01:09:13;;;;;;;0.00;0.00;;;;;;;6.12;52.15;101199.84;7355808;19;20010;-64
2022/04/10 01:11:38;;;;;;;0.00;0.00;;;;;;;6.06;52.38;101199.81;7351156;19;20538;-64
2022/04/10 01:14:04;;;;;;;0.00;0.00;;;;;;;6.08;52.11;101205.00;7353602;19;20014;-64
2022/04/10 01:16:31;;;;;;;0.00;0.00;;;;;;;6.04;51.61;101188.59;7358213;19;20036;-65
2022/04/10 01:18:57;;;;;;;0.00;0.00;;;;;;;6.03;51.88;101198.94;7357834;19;20886;-65
2022/04/10 01:21:25;;;;;;;0.00;0.00;;;;;;;5.99;51.97;101192.91;7349728;19;20022;-63
2022/04/10 01:23:53;;;;;;;0.00;0.00;;;;;;;5.95;52.12;101181.63;7354204;19;20013;-64
2022/04/10 01:26:19;;;;;;;0.00;0.00;;;;;;;5.91;52.08;101185.06;7351700;19;20815;-65
2022/04/10 01:29:01;;;;;;;0.00;0.00;;;;;;;5.86;51.25;101186.75;7354432;19;20027;-65
2022/04/10 01:31:29;;;;;;;0.00;0.00;;;;;;;5.79;51.84;101177.22;7357348;19;21411;-64
2022/04/10 01:34:03;;;;;;;0.00;0.00;;;;;;;5.77;52.21;101181.50;7353697;19;20006;-65
2022/04/10 01:36:30;;;;;;;0.00;0.00;;;;;;;5.74;52.03;101176.34;7352482;19;20019;-65
2022/04/10 01:38:58;;;;;;;0.00;0.00;;;;;;;5.70;52.06;101175.44;7355926;19;20034;-64
2022/04/10 01:41:25;;;;;;;0.00;0.00;;;;;;;5.67;51.62;101169.38;7345217;19;20023;-65
2022/04/10 01:43:52;;;;;;;0.10;0.10;;;;;;;5.56;52.15;101156.38;7343491;19;20538;-65
2022/04/10 01:46:18;;;;;;;0.00;0.00;;;;;;;5.61;52.42;101169.34;7357179;19;20924;-64
2022/04/10 01:48:44;;;;;;;0.00;0.00;;;;;;;5.57;52.25;101167.59;7349842;19;20131;-65
2022/04/10 01:51:10;;;;;;;0.00;0.00;;;;;;;5.55;52.41;101164.16;7350742;19;20648;-65
2022/04/10 01:53:36;;;;;;;0.00;0.00;;;;;;;5.51;52.29;101159.81;7359076;19;20023;-65
2022/04/10 01:56:03;;;;;;;0.00;0.00;;;;;;;5.39;52.13;101140.75;7355460;19;22110;-65
2022/04/10 01:58:35;;;;;;;0.00;0.00;;;;;;;5.46;52.15;101149.41;7352274;19;20027;-65
2022/04/10 02:01:04;;;;;;;0.00;0.00;;;;;;;5.43;52.13;101150.28;7354847;19;20022;-65
2022/04/10 02:03:30;;;;;;;0.00;0.00;;;;;;;5.38;52.86;101144.22;7353129;19;20813;-65
2022/04/10 02:06:00;;;;;;;0.00;0.00;;;;;;;5.38;52.65;101144.22;7341963;19;20113;-65
2022/04/10 02:08:25;;;;;;;0.00;0.00;;;;;;;5.37;52.65;101145.06;7354905;19;20529;-65
2022/04/10 02:10:51;;;;;;;0.00;0.00;;;;;;;5.34;52.81;101136.41;7356691;19;20034;-65
2022/04/10 02:13:16;;;;;;;0.00;0.00;;;;;;;5.28;53.08;101123.44;7344050;19;20685;-65
2022/04/10 02:15:41;;;;;;;0.00;0.00;;;;;;;5.21;52.89;101105.25;7344976;19;20034;-64
2022/04/10 02:18:07;;;;;;;0.00;0.00;;;;;;;5.33;53.06;101124.31;7346670;19;20006;-65
2022/04/10 02:20:33;;;;;;;0.00;0.00;;;;;;;5.22;53.32;101103.56;7353433;19;20842;-65
2022/04/10 02:22:59;;;;;;;0.00;0.00;;;;;;;5.34;53.31;101113.97;7358364;19;20011;-65
2022/04/10 02:25:24;;;;;;;0.00;0.00;;;;;;;5.35;52.90;101110.50;7355939;19;19999;-65
2022/04/10 02:27:50;;;;;;;0.00;0.00;;;;;;;5.35;53.16;101112.25;7360469;19;20019;-66
2022/04/10 02:30:16;;;;;;;0.00;0.00;;;;;;;5.37;53.47;101113.09;7361316;19;20212;-65
2022/04/10 02:32:42;;;;;;;0.00;0.00;;;;;;;5.37;53.53;101113.09;7352398;19;20091;-65
2022/04/10 02:35:08;;;;;;;0.00;0.00;;;;;;;5.37;53.43;101115.69;7360681;19;20120;-64
2022/04/10 02:37:35;;;;;;;0.00;0.00;;;;;;;5.36;53.29;101116.56;7333857;19;20007;-65
2022/04/10 02:40:01;;;;;;;0.00;0.00;;;;;;;5.26;53.60;101097.50;7356154;19;20637;-64
2022/04/10 02:42:27;;;;;;;0.00;0.00;;;;;;;5.25;53.29;101100.97;7362835;19;20021;-65
2022/04/10 02:44:54;;;;;;;0.00;0.00;;;;;;;5.21;53.48;101086.25;7357818;19;20006;-64
2022/04/10 02:47:20;;;;;;;0.00;0.00;;;;;;;5.16;53.38;101083.66;7358742;19;20413;-65
2022/04/10 02:49:45;;;;;;;0.00;0.00;;;;;;;5.26;53.46;101102.69;7355562;19;20035;-65
2022/04/10 02:52:10;;;;;;;0.00;0.00;;;;;;;5.25;53.31;101097.50;7355304;19;20012;-65
2022/04/10 02:54:36;;;;;;;0.00;0.00;;;;;;;5.22;53.40;101098.38;7357386;19;20006;-64
2022/04/10 02:57:01;;;;;;;0.00;0.00;;;;;;;5.00;53.32;101065.44;7360598;19;20010;-66
2022/04/10 02:59:27;;;;;;;0.00;0.00;;;;;;;5.16;53.86;101099.19;7349051;19;20018;-65
2022/04/10 03:01:52;;;;;;;0.00;0.00;;;;;;;5.15;53.88;101102.63;7359336;19;20048;-65
2022/04/10 03:04:18;;;;;;;0.00;0.00;;;;;;;5.13;53.67;101096.59;7360783;19;20010;-65
2022/04/10 03:06:43;;;;;;;0.00;0.00;;;;;;;5.13;53.91;101093.13;7349317;19;20040;-65
2022/04/10 03:09:08;;;;;;;0.00;0.00;;;;;;;5.12;53.68;101093.97;7359369;19;20049;-65
2022/04/10 03:11:34;;;;;;;0.00;0.00;;;;;;;5.03;53.79;101070.66;7361641;19;20070;-65
2022/04/10 03:14:00;;;;;;;0.00;0.00;;;;;;;4.99;53.86;101067.16;7362569;19;20026;-65
2022/04/10 03:16:25;;;;;;;0.00;0.00;;;;;;;5.02;53.78;101067.19;7357037;19;20007;-65
2022/04/10 03:18:51;;;;;;;0.00;0.00;;;;;;;5.04;53.81;101064.59;7354416;19;20018;-65
2022/04/10 03:21:18;;;;;;;0.00;0.00;;;;;;;5.02;54.03;101064.59;7357413;19;20021;-66
2022/04/10 03:23:44;;;;;;;0.00;0.00;;;;;;;4.99;53.89;101064.56;7365729;19;20450;-65
2022/04/10 03:26:09;;;;;;;0.00;0.00;;;;;;;4.98;54.02;101067.16;7362256;19;20048;-64
2022/04/10 03:28:35;;;;;;;0.00;0.00;;;;;;;4.92;54.35;101068.00;7366398;19;20624;-64
2022/04/10 03:31:00;;;;;;;0.00;0.00;;;;;;;4.94;54.52;101067.13;7363806;19;20013;-63
2022/04/10 03:33:26;;;;;;;0.10;0.10;;;;;;;4.98;54.55;101075.78;7357907;19;20033;-65
2022/04/10 03:35:53;;;;;;;0.00;0.00;;;;;;;4.99;55.04;101074.06;7353331;19;20010;-64
2022/04/10 03:38:18;;;;;;;0.00;0.00;;;;;;;5.01;54.59;101067.16;7363765;19;20165;-63
2022/04/10 03:40:43;;;;;;;0.00;0.00;;;;;;;5.06;55.08;101060.28;7362039;19;20097;-65
2022/04/10 03:43:09;;;;;;;0.00;0.00;;;;;;;5.09;55.27;101060.31;7362148;19;20038;-64
2022/04/10 03:45:34;;;;;;;0.00;0.00;;;;;;;5.14;55.29;101048.25;7356758;19;20044;-65
2022/04/10 03:48:00;;;;;;;0.00;0.00;;;;;;;5.19;55.33;101054.34;7365051;19;20025;-65
2022/04/10 03:50:26;;;;;;;0.00;0.00;;;;;;;5.24;55.50;101050.03;7357356;19;20007;-66
2022/04/10 03:52:51;;;;;;;0.00;0.00;;;;;;;5.29;55.48;101043.16;7355537;19;20128;-65
2022/04/10 03:55:16;;;;;;;0.00;0.00;;;;;;;5.34;55.61;101044.03;7365272;19;20796;-65
2022/04/10 03:57:42;;;;;;;0.00;0.00;;;;;;;5.39;55.82;101046.66;7355380;19;20052;-65
2022/04/10 04:00:08;;;;;;;0.00;0.00;;;;;;;5.43;55.68;101048.41;7363480;19;20765;-64
2022/04/10 04:02:34;;;;;;;0.00;0.00;;;;;;;5.49;55.69;101050.16;7361848;19;20021;-65
2022/04/10 04:04:59;;;;;;;0.00;0.00;;;;;;;5.43;55.06;101031.13;7359304;19;20771;-65
2022/04/10 04:07:25;;;;;;;0.00;0.00;;;;;;;5.56;55.48;101036.34;7362775;19;20010;-65
2022/04/10 04:09:50;;;;;;;0.00;0.00;;;;;;;5.62;54.99;101045.00;7351368;19;20573;-65
2022/04/10 04:12:15;;;;;;;0.00;0.00;;;;;;;5.66;55.47;101048.47;7364627;19;20669;-65
2022/04/10 04:14:41;;;;;;;0.00;0.00;;;;;;;5.70;55.29;101045.91;7363038;19;20026;-64
2022/04/10 04:17:07;;;;;;;0.00;0.00;;;;;;;5.75;55.19;101043.31;7361659;19;20021;-65
2022/04/10 04:19:32;;;;;;;0.00;0.00;;;;;;;5.79;55.57;101049.38;7354337;19;20015;-65
2022/04/10 04:21:57;;;;;;;0.00;0.00;;;;;;;5.80;55.56;101036.41;7361830;19;20061;-64
2022/04/10 04:24:23;;;;;;;0.00;0.00;;;;;;;5.76;55.58;101029.50;7360807;19;20500;-65
2022/04/10 04:26:49;;;;;;;0.00;0.00;;;;;;;5.87;55.78;101043.34;7351678;19;20013;-65
2022/04/10 04:29:14;;;;;;;0.00;0.00;;;;;;;5.91;55.54;101050.28;7357947;19;20010;-64
2022/04/10 04:31:39;;;;;;;0.08;0.08;;;;;;;5.96;55.05;101051.16;7361426;19;20553;-65
2022/04/10 04:34:07;;;;;;;0.00;0.00;;;;;;;5.98;55.42;101052.06;7358843;19;20049;-65
2022/04/10 04:36:32;;;;;;;0.10;0.10;;;;;;;6.01;55.43;101050.31;7353716;19;20021;-65
2022/04/10 04:38:57;;;;;;;0.00;0.00;;;;;;;6.04;55.51;101055.50;7358934;19;20010;-66
2022/04/10 04:41:23;;;;;;;0.10;0.10;;;;;;;6.03;55.42;101040.78;7357688;19;20359;-66
2022/04/10 04:43:49;;;;;;;0.05;0.05;;;;;;;6.09;55.61;101049.47;7356117;19;20026;-65
2022/04/10 04:46:15;;;;;;;0.00;0.00;;;;;;;6.12;55.56;101046.00;7363461;19;20022;-66
2022/04/10 04:48:40;;;;;;;0.00;0.00;;;;;;;6.14;55.54;101046.88;7354348;19;20020;-65
2022/04/10 04:51:06;;;;;;;0.00;0.00;;;;;;;6.15;55.43;101038.25;7356504;19;20045;-65
2022/04/10 04:53:31;;;;;;;0.00;0.00;;;;;;;6.07;55.31;101030.44;7363001;19;20011;-65
2022/04/10 04:55:56;;;;;;;0.00;0.00;;;;;;;6.16;55.22;101039.97;7362309;19;20044;-65
2022/04/10 04:58:22;;;;;;;0.03;0.03;;;;;;;6.22;55.97;101046.00;7360334;19;20010;-65
2022/04/10 05:00:47;;;;;;;0.10;0.10;;;;;;;6.24;55.39;101041.69;7361094;19;20577;-65
2022/04/10 05:03:15;;;;;;;0.00;0.00;;;;;;;6.28;55.60;101045.16;7350671;19;20509;-65
2022/04/10 05:05:41;;;;;;;0.00;0.00;;;;;;;6.18;55.85;101020.06;7359632;19;20060;-65
2022/04/10 05:08:06;;;;;;;0.00;0.00;;;;;;;6.29;55.39;101036.53;7361536;19;20018;-65
2022/04/10 05:10:32;;;;;;;0.00;0.00;;;;;;;6.31;55.40;101029.59;7362430;19;20118;-65
2022/04/10 05:12:57;;;;;;;0.00;0.00;;;;;;;6.33;55.40;101027.00;7357973;19;20013;-64
2022/04/10 05:15:22;;;;;;;0.00;0.00;;;;;;;6.25;55.89;101011.44;7360472;19;20344;-65
2022/04/10 05:17:48;;;;;;;0.00;0.00;;;;;;;6.34;55.58;101023.56;7357973;19;20017;-65
2022/04/10 05:20:13;;;;;;;0.00;0.00;;;;;;;6.39;55.44;101030.47;7354225;19;20018;-65
2022/04/10 05:22:39;;;;;;;0.00;0.00;;;;;;;6.40;55.63;101034.78;7349177;19;20011;-65
2022/04/10 05:25:04;;;;;;;0.00;0.00;;;;;;;6.44;55.98;101041.72;7362441;19;20025;-65
2022/04/10 05:27:30;;;;;;;0.00;0.00;;;;;;;6.39;56.10;101029.59;7353058;19;20014;-64
2022/04/10 05:29:55;;;;;;;0.00;0.00;;;;;;;6.48;56.15;101038.22;7360313;19;20014;-65
2022/04/10 05:32:21;;;;;;;0.00;0.00;;;;;;;6.54;55.96;101036.50;7362252;19;20050;-64
2022/04/10 05:34:46;;;;;;;0.00;0.00;;;;;;;6.58;55.76;101035.63;7360348;19;20037;-65
2022/04/10 05:37:12;;;;;;;0.00;0.00;;;;;;;6.60;56.13;101026.13;7361240;19;20018;-65
2022/04/10 05:39:39;;;;;;;0.00;0.00;;;;;;;6.61;55.85;101022.66;7346059;19;20018;-64
2022/04/10 05:42:06;;;;;;;0.00;0.00;;;;;;;6.65;55.82;101034.78;7358891;19;20014;-64
2022/04/10 05:44:32;;;;;;;0.00;0.00;;;;;;;6.67;55.60;101027.84;7360320;19;20010;-65
2022/04/10 05:46:57;;;;;;;0.00;0.00;;;;;;;6.69;55.80;101033.88;7356042;19;20027;-64
2022/04/10 05:49:23;;;;;;;0.00;0.00;;;;;;;6.73;55.43;101033.88;7354702;19;20029;-65
2022/04/10 05:51:50;;;;;;;0.00;0.00;;;;;;;6.80;56.15;101026.97;7361156;19;20010;-64
2022/04/10 05:54:15;;;;;;;0.00;0.00;;;;;;;6.86;55.74;101031.28;7355056;19;20010;-64
2022/04/10 05:56:41;;;;;;;0.00;0.00;;;;;;;6.92;55.67;101032.13;7350407;19;21566;-64
2022/04/10 05:59:06;;;;;;;0.00;0.00;;;;;;;6.99;55.94;101030.34;7361106;19;20090;-65
2022/04/10 06:01:32;;;;;;;0.00;0.00;;;;;;;7.06;55.36;101036.41;7359522;19;20014;-64
2022/04/10 06:03:57;;;;;;;0.00;0.00;;;;;;;7.08;54.89;101024.28;7351393;19;19998;-64
2022/04/10 06:06:22;;;;;;;0.00;0.00;;;;;;;7.18;55.39;101031.16;7359461;19;20339;-64
2022/04/10 06:08:48;;;;;;;0.00;0.00;;;;;;;7.25;54.82;101033.75;7359320;19;20030;-65
2022/04/10 06:11:13;;;;;;;0.00;0.00;;;;;;;7.23;55.62;101024.22;7353377;19;20019;-65
2022/04/10 06:13:39;;;;;;;0.00;0.00;;;;;;;7.37;54.83;101043.22;7355387;19;20021;-64
2022/04/10 06:16:04;;;;;;;0.00;0.00;;;;;;;7.41;55.20;101042.34;7350641;19;20015;-64
2022/04/10 06:18:30;;;;;;;0.00;0.00;;;;;;;7.46;54.86;101043.19;7354475;19;23062;-65
2022/04/10 06:20:55;;;;;;;0.00;0.00;;;;;;;7.46;55.10;101038.00;7360283;19;20770;-64
2022/04/10 06:23:23;;;;;;;0.00;0.00;;;;;;;7.42;54.93;101019.81;7349617;19;20078;-64
2022/04/10 06:25:49;;;;;;;0.00;0.00;;;;;;;7.61;54.59;101051.78;7360608;19;20082;-65
2022/04/10 06:28:14;;;;;;;0.00;0.00;;;;;;;7.63;55.21;101044.84;7352608;19;20015;-65
2022/04/10 06:30:40;;;;;;;0.00;0.00;;;;;;;7.67;54.48;101039.63;7355514;19;20683;-65
2022/04/10 06:33:05;;;;;;;0.00;0.00;;;;;;;7.73;54.84;101041.31;7350782;19;20468;-65
2022/04/10 06:35:31;;;;;;;0.00;0.00;;;;;;;7.68;54.90;101017.94;7352750;19;20601;-64
2022/04/10 06:37:56;;;;;;;0.00;0.00;;;;;;;7.82;54.83;101049.06;7354500;19;20093;-64
2022/04/10 06:40:22;;;;;;;0.00;0.00;;;;;;;7.86;55.53;101042.97;7343050;19;20045;-64
2022/04/10 06:42:47;;;;;;;0.00;0.00;;;;;;;7.86;54.96;101027.38;7354227;19;20019;-64
2022/04/10 06:45:13;;;;;;;0.00;0.00;;;;;;;7.91;55.42;101036.03;7357839;19;20023;-64
2022/04/10 06:47:38;;;;;;;0.00;0.00;;;;;;;8.03;55.19;101043.72;7356964;19;20034;-64
2022/04/10 06:50:04;;;;;;;0.00;0.00;;;;;;;8.00;55.02;101020.31;7341458;19;20018;-64
2022/04/10 06:52:29;;;;;;;0.00;0.00;;;;;;;8.17;54.34;101040.19;7347447;19;20030;-64
2022/04/10 06:54:55;;;;;;;0.10;0.10;;;;;;;8.22;54.71;101036.66;7356956;19;20010;-65
2022/04/10 06:57:20;;;;;;;0.00;0.00;;;;;;;8.27;54.34;101029.69;7352058;19;20127;-65
2022/04/10 06:59:45;;;;;;;0.00;0.00;;;;;;;8.31;53.59;101030.50;7349788;19;20458;-64
2022/04/10 07:02:11;;;;;;;0.00;0.00;;;;;;;8.40;55.04;101037.41;7353795;19;20034;-65
2022/04/10 07:04:36;;;;;;;0.00;0.00;;;;;;;8.44;54.21;101032.16;7355611;19;20006;-65
2022/04/10 07:07:02;;;;;;;0.00;0.00;;;;;;;8.53;54.07;101045.09;7353776;19;20006;-64
2022/04/10 07:09:27;;;;;;;0.00;0.00;;;;;;;8.55;54.48;101037.28;7360439;19;20014;-65
2022/04/10 07:11:53;;;;;;;0.00;0.00;;;;;;;8.66;53.38;101042.38;7357127;19;20010;-64
2022/04/10 07:14:18;;;;;;;0.00;0.00;;;;;;;8.72;54.48;101039.75;7352895;19;20014;-64
2022/04/10 07:16:43;;;;;;;0.00;0.00;;;;;;;8.79;54.10;101041.41;7347533;19;20006;-65
2022/04/10 07:19:09;;;;;;;0.00;0.00;;;;;;;8.87;54.13;101039.59;7358521;19;20009;-64
2022/04/10 07:24:18;;;;;;;0.00;0.00;;;;;;;9.02;53.94;101052.47;7345371;19;20113;-64
2022/04/10 07:26:43;;;;;;;0.05;0.05;;;;;;;9.08;53.88;101041.97;7360624;19;20479;-64
2022/04/10 07:29:12;;;;;;;0.00;0.00;;;;;;;9.17;53.52;101034.91;7349984;19;20018;-64
2022/04/10 07:31:38;;;;;;;0.10;0.10;;;;;;;9.22;53.55;101040.91;7347293;19;20086;-64
2022/04/10 07:34:03;;;;;;;0.00;0.00;;;;;;;9.30;53.24;101044.31;7358854;19;20105;-64
2022/04/10 07:36:29;;;;;;;0.00;0.00;;;;;;;9.34;53.34;101051.22;7347307;19;20014;-64
2022/04/10 07:38:55;;;;;;;0.00;0.00;;;;;;;9.39;53.12;101043.34;7361669;19;21075;-64
2022/04/10 07:41:21;;;;;;;0.00;0.00;;;;;;;9.39;53.03;101031.19;7355056;19;20034;-64
2022/04/10 07:43:46;;;;;;;0.00;0.00;;;;;;;9.44;52.93;101039.81;7357986;19;20010;-64
2022/04/10 07:48:55;;;;;;;0.00;0.00;;;;;;;9.43;52.90;101031.97;7360318;19;20089;-64
2022/04/10 07:51:21;;;;;;;0.00;0.00;;;;;;;9.57;52.81;101046.56;7345823;19;20018;-65
2022/04/10 07:53:46;;;;;;;0.00;0.00;;;;;;;9.58;53.20;101035.28;7359963;19;20453;-64
2022/04/10 07:56:12;;;;;;;0.00;0.00;;;;;;;9.50;52.97;101018.00;7354639;19;20021;-64
2022/04/10 07:58:37;;;;;;;0.00;0.00;;;;;;;9.64;53.35;101041.28;7353444;19;20845;-63
2022/04/10 08:01:03;;;;;;;0.00;0.00;;;;;;;9.65;53.27;101048.22;7363753;19;20011;-64
2022/04/10 08:03:28;;;;;;;0.00;0.00;;;;;;;9.68;53.95;101045.56;7352122;19;20010;-65
2022/04/10 08:05:54;;;;;;;0.00;0.00;;;;;;;9.69;53.87;101029.06;7357906;19;20011;-65
2022/04/10 08:08:20;;;;;;;0.00;0.00;;;;;;;9.74;53.36;101037.69;7351915;19;20123;-64
2022/04/10 08:10:45;;;;;;;0.00;0.00;;;;;;;9.74;53.76;101029.84;7360451;19;20016;-64
2022/04/10 08:13:11;;;;;;;0.00;0.00;;;;;;;9.78;53.61;101040.22;7359466;19;20014;-65
2022/04/10 08:15:36;;;;;;;0.00;0.00;;;;;;;9.82;54.16;101025.38;7354848;19;20021;-64
2022/04/10 08:18:02;;;;;;;0.00;0.00;;;;;;;9.86;53.85;101037.50;7344320;19;20039;-63
2022/04/10 08:20:27;;;;;;;0.00;0.00;;;;;;;9.93;54.17;101033.03;7359187;19;20017;-64
2022/04/10 08:22:53;;;;;;;0.00;0.00;;;;;;;9.98;53.52;101028.63;7353377;19;20101;-63
2022/04/10 08:25:23;;;;;;;0.00;0.00;;;;;;;10.01;54.01;101021.59;7361271;19;20021;-65
2022/04/10 08:27:49;;;;;;;0.00;0.00;;;;;;;10.05;53.54;101012.84;7352871;19;20772;-64
2022/04/10 08:30:14;;;;;;;0.00;0.00;;;;;;;10.12;53.70;101014.47;7355785;19;20099;-65
2022/04/10 08:32:42;;;;;;;0.00;0.00;;;;;;;10.16;54.31;101004.84;7356281;19;20363;-64
2022/04/10 08:35:08;;;;;;;0.00;0.00;;;;;;;10.24;53.70;101012.56;7350928;19;20017;-64
2022/04/10 08:37:34;;;;;;;0.00;0.00;;;;;;;10.28;53.74;101011.66;7352906;19;20109;-64
2022/04/10 08:39:59;;;;;;;0.00;0.00;;;;;;;10.29;53.72;101015.97;7350321;19;20070;-65
2022/04/10 08:42:25;;;;;;;0.00;0.00;;;;;;;10.30;53.70;101000.31;7351109;19;20660;-64
2022/04/10 08:44:52;;;;;;;0.00;0.00;;;;;;;10.34;53.35;101016.75;7348410;19;20011;-65
2022/04/10 08:47:20;;;;;;;0.00;0.00;;;;;;;10.33;53.61;101004.59;7346729;19;20011;-65
2022/04/10 08:49:49;;;;;;;0.00;0.00;;;;;;;10.35;54.10;101005.47;7349264;19;20466;-64
2022/04/10 08:52:19;;;;;;;0.00;0.00;;;;;;;10.35;54.09;101000.22;7343032;19;20726;-64
2022/04/10 08:54:45;;;;;;;0.00;0.00;;;;;;;10.32;54.11;100992.44;7352517;19;20607;-65
2022/04/10 08:57:12;;;;;;;0.00;0.00;;;;;;;10.36;53.47;100996.72;7353005;19;20082;-65
2022/04/10 08:59:41;;;;;;;0.00;0.00;;;;;;;10.41;53.57;101005.34;7352569;19;21349;-64
2022/04/10 09:02:07;;;;;;;0.00;0.00;;;;;;;10.34;54.08;100991.53;7350479;19;20663;-64
2022/04/10 09:04:32;;;;;;;0.00;0.00;;;;;;;10.41;53.77;101000.13;7354889;19;20042;-65
2022/04/10 09:07:02;;;;;;;0.00;0.00;;;;;;;10.41;53.46;101000.13;7355143;19;20031;-63
2022/04/10 09:09:28;;;;;;;0.00;0.00;;;;;;;10.38;54.05;100995.81;7352270;19;20113;-64
2022/04/10 09:11:54;;;;;;;0.00;0.00;;;;;;;10.41;53.97;100984.47;7355116;19;20707;-65
2022/04/10 09:14:28;;;;;;;0.00;0.00;;;;;;;10.44;53.71;100992.25;7330717;19;20928;-64
2022/04/10 09:17:09;;;;;;;0.00;0.00;;;;;;;10.49;52.92;100994.75;7352835;19;20660;-64
2022/04/10 09:19:36;;;;;;;0.00;0.00;;;;;;;10.45;53.95;100993.97;7334046;19;20462;-64
2022/04/10 09:22:19;;;;;;;0.00;0.00;;;;;;;10.49;53.22;100992.13;7343795;19;20031;-64
2022/04/10 09:25:01;;;;;;;0.00;0.00;;;;;;;10.40;53.43;100974.91;7346931;19;20017;-65
2022/04/10 09:27:39;;;;;;;0.00;0.00;;;;;;;10.53;53.52;100996.44;7348925;19;20672;-64
2022/04/10 09:30:07;;;;;;;0.03;0.03;;;;;;;10.52;54.14;100982.50;7344321;19;20018;-65
2022/04/10 09:32:51;;;;;;;0.00;0.00;;;;;;;10.59;53.18;100978.91;7348775;19;20022;-64
2022/04/10 09:35:19;;;;;;;0.00;0.00;;;;;;;10.58;54.08;100981.53;7348650;19;20014;-65
2022/04/10 09:37:50;;;;;;;0.00;0.00;;;;;;;10.58;53.88;100976.31;7336475;19;20436;-64
2022/04/10 09:40:28;;;;;;;0.00;0.00;;;;;;;10.65;53.77;100975.34;7353173;19;20782;-65
2022/04/10 09:43:04;;;;;;;0.00;0.00;;;;;;;10.70;54.11;100972.63;7355259;19;20050;-64
2022/04/10 09:45:36;;;;;;;0.00;0.00;;;;;;;10.69;54.49;100958.69;7356039;19;23424;-64
2022/04/10 09:48:31;;;;;;;0.00;0.00;;;;;;;10.78;53.62;100960.28;7357536;19;20010;-65
2022/04/10 09:51:02;;;;;;;0.00;0.00;;;;;;;10.80;54.24;100961.13;7251803;19;2004869;-64
2022/04/10 09:53:29;;;;;;;0.00;0.00;;;;;;;10.79;54.61;100955.00;7342667;19;20074;-64
2022/04/10 09:55:56;;;;;;;0.00;0.00;;;;;;;10.88;54.46;100961.81;7355596;19;20019;-64
2022/04/10 09:58:21;;;;;;;0.00;0.00;;;;;;;10.92;54.55;100958.25;7355646;19;20014;-64
2022/04/10 10:00:49;;;;;;;0.00;0.00;;;;;;;11.01;54.15;100963.31;7349159;19;20019;-64
2022/04/10 10:03:15;;;;;;;0.00;0.00;;;;;;;11.06;54.81;100958.84;7355626;19;20034;-64
2022/04/10 10:05:40;;;;;;;0.00;0.00;;;;;;;11.14;54.58;100962.13;7347742;19;20010;-64
2022/04/10 10:08:07;;;;;;;0.00;0.00;;;;;;;11.18;54.43;100958.56;7344075;19;20499;-64
2022/04/10 10:10:37;;;;;;;0.00;0.00;;;;;;;11.11;54.22;100940.47;7354710;19;20006;-65
2022/04/10 10:13:08;;;;;;;0.00;0.00;;;;;;;11.24;54.33;100956.72;7349106;19;20355;-64
2022/04/10 10:15:37;;;;;;;0.00;0.00;;;;;;;11.27;54.73;100954.91;7352930;19;20576;-64
2022/04/10 10:18:07;;;;;;;0.00;0.00;;;;;;;11.20;54.03;100934.16;7350106;19;20007;-64
2022/04/10 10:20:34;;;;;;;0.00;0.00;;;;;;;11.23;54.31;100941.94;7330677;19;20002;-64
2022/04/10 10:23:01;;;;;;;0.00;0.00;;;;;;;11.38;54.66;100952.06;7338252;19;20007;-64
2022/04/10 10:25:36;;;;;;;0.00;0.00;;;;;;;11.37;54.02;100939.88;7345638;19;20721;-64
2022/04/10 10:28:31;;;;;;;0.00;0.00;;;;;;;11.49;54.09;100947.44;7354464;19;20380;-64
2022/04/10 10:31:18;;;;;;;0.00;0.00;;;;;;;11.51;54.47;100948.28;7236022;19;2004607;-64
2022/04/10 10:33:52;;;;;;;0.00;0.00;;;;;;;11.51;54.10;100935.22;7246122;19;2004423;-64
2022/04/10 10:36:26;;;;;;;0.00;0.00;;;;;;;11.59;54.13;100943.72;7348477;19;20007;-64
2022/04/10 10:38:53;;;;;;;0.00;0.00;;;;;;;11.59;53.97;100927.19;7337001;19;20407;-65
2022/04/10 10:41:18;;;;;;;0.00;0.00;;;;;;;11.66;53.81;100945.31;7349318;19;20053;-63
2022/04/10 10:43:45;;;;;;;0.00;0.00;;;;;;;11.68;54.38;100938.28;7348966;19;20018;-64
2022/04/10 10:46:21;;;;;;;0.00;0.00;;;;;;;11.75;53.90;100938.13;7353904;19;20030;-64
2022/04/10 10:48:50;;;;;;;0.00;0.00;;;;;;;11.79;54.11;100942.41;7355213;19;20010;-64
2022/04/10 10:51:15;;;;;;;0.00;0.00;;;;;;;11.82;53.87;100929.28;7357268;19;20007;-64
2022/04/10 10:53:43;;;;;;;0.08;0.08;;;;;;;11.85;54.36;100929.19;7351904;19;20013;-62
2022/04/10 10:56:36;;;;;;;0.00;0.00;;;;;;;11.88;53.67;100914.31;7351290;19;20010;-64
2022/04/10 10:59:22;;;;;;;0.00;0.00;;;;;;;11.92;53.52;100904.63;7248859;19;2004462;-64
2022/04/10 11:02:11;;;;;;;0.00;0.00;;;;;;;11.98;53.89;100920.16;7352546;19;20085;-64
2022/04/10 11:04:45;;;;;;;0.00;0.00;;;;;;;11.99;53.83;100900.94;7342904;19;20018;-64
2022/04/10 11:07:19;;;;;;;0.00;0.00;;;;;;;12.03;54.03;100912.19;7361833;19;20549;-64
2022/04/10 11:09:49;;;;;;;0.10;0.10;;;;;;;12.10;53.96;100903.28;7357181;19;20110;-64
2022/04/10 11:12:15;;;;;;;0.00;0.00;;;;;;;12.11;53.93;100908.47;7360093;19;20819;-64
2022/04/10 11:14:41;;;;;;;0.00;0.00;;;;;;;12.14;53.65;100907.53;7357524;19;20017;-64
2022/04/10 11:17:25;;;;;;;0.00;0.00;;;;;;;12.16;53.49;100906.59;7361248;19;20010;-64
2022/04/10 11:19:54;;;;;;;0.00;0.00;;;;;;;12.22;53.51;100908.22;7353687;19;20015;-65
2022/04/10 11:22:29;;;;;;;0.00;0.00;;;;;;;12.19;53.46;100898.66;7357036;19;20010;-64
2022/04/10 11:24:58;;;;;;;0.10;0.10;;;;;;;12.19;53.93;100903.91;7355543;19;20025;-64
2022/04/10 11:27:44;;;;;;;0.00;0.00;;;;;;;12.24;53.45;100908.16;7363053;19;20022;-64
2022/04/10 11:30:14;;;;;;;0.00;0.00;;;;;;;12.23;53.55;100893.38;7358864;19;20013;-64
2022/04/10 11:32:45;;;;;;;0.00;0.00;;;;;;;12.23;54.04;100888.13;7355847;19;20082;-64
2022/04/10 11:35:37;;;;;;;0.00;0.00;;;;;;;12.29;53.62;100895.81;7353979;19;20023;-64
2022/04/10 11:38:06;;;;;;;0.00;0.00;;;;;;;12.32;54.04;100893.97;7262540;19;2004141;-65